sensor_id;sensor_type;location;lat;lon;timestamp;P1;durP1;ratioP1;P2;durP2;ratioP2
56824;SDS011;42705;50.326;18.772;2023-12-04T00:00:25;56.10;;;21.60;;
56824;SDS011;42705;50.326;18.772;2023-12-04T00:06:07;47.00;;;18.90;;
56824;SDS011;42705;50.326;18.772;2023-12-04T00:11:29;46.40;;;18.20;;
56824;SDS011;42705;50.326;18.772;2023-12-04T00:16:51;69.30;;;26.50;;
56824;SDS011;42705;50.326;18.772;2023-12-04T00:22:13;47.60;;;21.80;;
56824;SDS011;42705;50.326;18.772;2023-12-04T00:27:34;44.10;;;18.80;;
56824;SDS011;42705;50.326;18.772;2023-12-04T00:32:56;45.60;;;21.00;;
56824;SDS011;42705;50.326;18.772;2023-12-04T00:38:18;44.60;;;19.10;;
56824;SDS011;42705;50.326;18.772;2023-12-04T00:43:40;42.20;;;17.40;;
56824;SDS011;42705;50.326;18.772;2023-12-04T00:49:02;61.40;;;26.10;;
56824;SDS011;42705;50.326;18.772;2023-12-04T00:54:24;47.80;;;21.30;;
56824;SDS011;42705;50.326;18.772;2023-12-04T00:59:46;43.10;;;19.60;;
56824;SDS011;42705;50.326;18.772;2023-12-04T01:05:08;41.50;;;17.90;;
56824;SDS011;42705;50.326;18.772;2023-12-04T01:10:30;42.40;;;18.40;;
56824;SDS011;42705;50.326;18.772;2023-12-04T01:15:51;36.60;;;16.20;;
56824;SDS011;42705;50.326;18.772;2023-12-04T01:21:13;68.60;;;30.10;;
56824;SDS011;42705;50.326;18.772;2023-12-04T01:26:36;52.90;;;23.00;;
56824;SDS011;42705;50.326;18.772;2023-12-04T01:31:58;47.80;;;21.80;;
56824;SDS011;42705;50.326;18.772;2023-12-04T01:37:19;50.10;;;21.50;;
56824;SDS011;42705;50.326;18.772;2023-12-04T01:42:42;51.40;;;22.10;;
56824;SDS011;42705;50.326;18.772;2023-12-04T01:48:04;53.80;;;24.20;;
56824;SDS011;42705;50.326;18.772;2023-12-04T01:53:29;91.10;;;37.80;;
56824;SDS011;42705;50.326;18.772;2023-12-04T01:58:52;75.80;;;30.40;;
56824;SDS011;42705;50.326;18.772;2023-12-04T02:04:14;73.80;;;28.50;;
56824;SDS011;42705;50.326;18.772;2023-12-04T02:09:36;69.00;;;26.90;;
56824;SDS011;42705;50.326;18.772;2023-12-04T02:14:59;68.70;;;26.40;;
56824;SDS011;42705;50.326;18.772;2023-12-04T02:20:24;63.10;;;25.40;;
56824;SDS011;42705;50.326;18.772;2023-12-04T02:25:56;94.80;;;38.20;;
56824;SDS011;42705;50.326;18.772;2023-12-04T02:31:21;66.40;;;29.00;;
56824;SDS011;42705;50.326;18.772;2023-12-04T02:36:46;69.00;;;28.80;;
56824;SDS011;42705;50.326;18.772;2023-12-04T02:42:09;70.70;;;30.70;;
56824;SDS011;42705;50.326;18.772;2023-12-04T02:47:31;78.90;;;35.20;;
56824;SDS011;42705;50.326;18.772;2023-12-04T02:52:53;74.50;;;31.40;;
56824;SDS011;42705;50.326;18.772;2023-12-04T02:58:15;66.80;;;29.40;;
56824;SDS011;42705;50.326;18.772;2023-12-04T03:03:37;74.60;;;30.00;;
56824;SDS011;42705;50.326;18.772;2023-12-04T03:08:59;76.30;;;35.50;;
56824;SDS011;42705;50.326;18.772;2023-12-04T03:14:21;74.30;;;31.40;;
56824;SDS011;42705;50.326;18.772;2023-12-04T03:19:43;69.90;;;31.10;;
56824;SDS011;42705;50.326;18.772;2023-12-04T03:25:05;68.50;;;31.20;;
56824;SDS011;42705;50.326;18.772;2023-12-04T03:30:28;68.90;;;28.60;;
56824;SDS011;42705;50.326;18.772;2023-12-04T03:35:50;77.50;;;32.60;;
56824;SDS011;42705;50.326;18.772;2023-12-04T03:41:15;64.00;;;29.70;;
56824;SDS011;42705;50.326;18.772;2023-12-04T03:46:38;62.30;;;28.10;;
56824;SDS011;42705;50.326;18.772;2023-12-04T03:51:59;59.90;;;26.30;;
56824;SDS011;42705;50.326;18.772;2023-12-04T03:57:21;56.20;;;26.10;;
56824;SDS011;42705;50.326;18.772;2023-12-04T04:02:43;88.60;;;38.50;;
56824;SDS011;42705;50.326;18.772;2023-12-04T04:08:06;65.80;;;31.90;;
56824;SDS011;42705;50.326;18.772;2023-12-04T04:13:29;69.10;;;30.80;;
56824;SDS011;42705;50.326;18.772;2023-12-04T04:18:51;67.90;;;31.60;;
56824;SDS011;42705;50.326;18.772;2023-12-04T04:24:13;65.90;;;31.60;;
56824;SDS011;42705;50.326;18.772;2023-12-04T04:29:34;95.70;;;43.90;;
56824;SDS011;42705;50.326;18.772;2023-12-04T04:34:56;65.10;;;31.20;;
56824;SDS011;42705;50.326;18.772;2023-12-04T04:40:19;62.00;;;32.70;;
56824;SDS011;42705;50.326;18.772;2023-12-04T04:45:41;61.90;;;30.00;;
56824;SDS011;42705;50.326;18.772;2023-12-04T04:51:03;59.40;;;27.40;;
56824;SDS011;42705;50.326;18.772;2023-12-04T04:56:25;58.70;;;26.80;;
56824;SDS011;42705;50.326;18.772;2023-12-04T05:01:47;66.10;;;30.30;;
56824;SDS011;42705;50.326;18.772;2023-12-04T05:07:09;96.40;;;41.80;;
56824;SDS011;42705;50.326;18.772;2023-12-04T05:12:31;62.90;;;30.90;;
56824;SDS011;42705;50.326;18.772;2023-12-04T05:17:53;72.50;;;32.40;;
56824;SDS011;42705;50.326;18.772;2023-12-04T05:23:15;79.40;;;34.50;;
56824;SDS011;42705;50.326;18.772;2023-12-04T05:28:37;68.10;;;32.20;;
56824;SDS011;42705;50.326;18.772;2023-12-04T05:33:59;66.90;;;29.50;;
56824;SDS011;42705;50.326;18.772;2023-12-04T05:39:21;63.10;;;28.50;;
56824;SDS011;42705;50.326;18.772;2023-12-04T05:44:42;57.00;;;27.20;;
56824;SDS011;42705;50.326;18.772;2023-12-04T05:50:05;63.50;;;29.70;;
56824;SDS011;42705;50.326;18.772;2023-12-04T05:55:29;65.30;;;30.30;;
56824;SDS011;42705;50.326;18.772;2023-12-04T06:00:53;63.60;;;27.40;;
56824;SDS011;42705;50.326;18.772;2023-12-04T06:06:15;102.70;;;45.20;;
56824;SDS011;42705;50.326;18.772;2023-12-04T06:11:37;80.20;;;36.30;;
56824;SDS011;42705;50.326;18.772;2023-12-04T06:16:59;61.70;;;26.90;;
56824;SDS011;42705;50.326;18.772;2023-12-04T06:22:21;65.00;;;29.20;;
56824;SDS011;42705;50.326;18.772;2023-12-04T06:27:43;77.40;;;37.40;;
56824;SDS011;42705;50.326;18.772;2023-12-04T06:33:06;62.10;;;29.70;;
56824;SDS011;42705;50.326;18.772;2023-12-04T06:38:30;70.40;;;30.00;;
56824;SDS011;42705;50.326;18.772;2023-12-04T06:43:54;69.40;;;32.20;;
56824;SDS011;42705;50.326;18.772;2023-12-04T06:49:16;107.70;;;40.60;;
56824;SDS011;42705;50.326;18.772;2023-12-04T07:00:01;119.90;;;52.80;;
56824;SDS011;42705;50.326;18.772;2023-12-04T07:05:24;86.10;;;37.60;;
56824;SDS011;42705;50.326;18.772;2023-12-04T07:10:46;82.20;;;37.00;;
56824;SDS011;42705;50.326;18.772;2023-12-04T07:16:08;86.90;;;38.20;;
56824;SDS011;42705;50.326;18.772;2023-12-04T07:21:30;82.70;;;37.50;;
56824;SDS011;42705;50.326;18.772;2023-12-04T07:26:52;80.40;;;34.40;;
56824;SDS011;42705;50.326;18.772;2023-12-04T07:32:14;97.50;;;44.40;;
56824;SDS011;42705;50.326;18.772;2023-12-04T07:37:36;90.60;;;39.50;;
56824;SDS011;42705;50.326;18.772;2023-12-04T07:42:59;97.20;;;42.60;;
56824;SDS011;42705;50.326;18.772;2023-12-04T07:48:21;104.70;;;47.90;;
56824;SDS011;42705;50.326;18.772;2023-12-04T07:53:43;120.00;;;50.70;;
56824;SDS011;42705;50.326;18.772;2023-12-04T07:59:05;140.90;;;58.90;;
56824;SDS011;42705;50.326;18.772;2023-12-04T08:04:27;124.10;;;50.00;;
56824;SDS011;42705;50.326;18.772;2023-12-04T08:09:49;115.00;;;47.90;;
56824;SDS011;42705;50.326;18.772;2023-12-04T08:15:11;111.10;;;45.50;;
56824;SDS011;42705;50.326;18.772;2023-12-04T08:20:33;113.20;;;43.80;;
56824;SDS011;42705;50.326;18.772;2023-12-04T08:25:57;99.20;;;41.10;;
56824;SDS011;42705;50.326;18.772;2023-12-04T08:31:19;96.00;;;41.80;;
56824;SDS011;42705;50.326;18.772;2023-12-04T08:36:41;71.90;;;32.20;;
56824;SDS011;42705;50.326;18.772;2023-12-04T08:42:03;59.10;;;26.00;;
56824;SDS011;42705;50.326;18.772;2023-12-04T08:47:26;64.10;;;26.50;;
56824;SDS011;42705;50.326;18.772;2023-12-04T08:52:48;56.30;;;25.80;;
56824;SDS011;42705;50.326;18.772;2023-12-04T08:58:10;73.60;;;31.60;;
56824;SDS011;42705;50.326;18.772;2023-12-04T09:03:32;70.00;;;31.30;;
56824;SDS011;42705;50.326;18.772;2023-12-04T09:08:54;59.20;;;26.20;;
56824;SDS011;42705;50.326;18.772;2023-12-04T09:14:16;50.60;;;21.90;;
56824;SDS011;42705;50.326;18.772;2023-12-04T09:19:38;65.30;;;27.30;;
56824;SDS011;42705;50.326;18.772;2023-12-04T09:25:01;66.30;;;27.50;;
56824;SDS011;42705;50.326;18.772;2023-12-04T09:30:23;65.50;;;28.70;;
56824;SDS011;42705;50.326;18.772;2023-12-04T09:35:45;55.60;;;23.70;;
56824;SDS011;42705;50.326;18.772;2023-12-04T09:41:08;49.60;;;23.90;;
56824;SDS011;42705;50.326;18.772;2023-12-04T09:46:32;48.40;;;21.50;;
56824;SDS011;42705;50.326;18.772;2023-12-04T09:51:59;47.30;;;21.10;;
56824;SDS011;42705;50.326;18.772;2023-12-04T09:57:24;42.20;;;19.80;;
56824;SDS011;42705;50.326;18.772;2023-12-04T10:02:47;50.10;;;21.20;;
56824;SDS011;42705;50.326;18.772;2023-12-04T10:08:10;42.80;;;19.00;;
56824;SDS011;42705;50.326;18.772;2023-12-04T10:13:33;42.10;;;19.30;;
56824;SDS011;42705;50.326;18.772;2023-12-04T10:18:56;46.10;;;20.80;;
56824;SDS011;42705;50.326;18.772;2023-12-04T10:24:32;35.20;;;17.00;;
56824;SDS011;42705;50.326;18.772;2023-12-04T10:29:58;41.20;;;18.50;;
56824;SDS011;42705;50.326;18.772;2023-12-04T10:35:20;30.30;;;15.00;;
56824;SDS011;42705;50.326;18.772;2023-12-04T10:46:06;41.50;;;19.40;;
56824;SDS011;42705;50.326;18.772;2023-12-04T10:51:28;37.90;;;17.70;;
56824;SDS011;42705;50.326;18.772;2023-12-04T10:56:52;36.80;;;16.90;;
56824;SDS011;42705;50.326;18.772;2023-12-04T11:02:17;35.60;;;16.60;;
56824;SDS011;42705;50.326;18.772;2023-12-04T11:07:44;26.40;;;13.70;;
56824;SDS011;42705;50.326;18.772;2023-12-04T11:13:15;28.70;;;14.10;;
56824;SDS011;42705;50.326;18.772;2023-12-04T11:18:43;39.10;;;17.90;;
56824;SDS011;42705;50.326;18.772;2023-12-04T11:24:07;33.20;;;16.30;;
56824;SDS011;42705;50.326;18.772;2023-12-04T11:29:29;35.10;;;16.90;;
56824;SDS011;42705;50.326;18.772;2023-12-04T11:34:56;33.50;;;15.40;;
56824;SDS011;42705;50.326;18.772;2023-12-04T11:40:21;29.80;;;15.90;;
56824;SDS011;42705;50.326;18.772;2023-12-04T11:45:44;33.10;;;15.90;;
56824;SDS011;42705;50.326;18.772;2023-12-04T11:51:09;28.90;;;16.40;;
56824;SDS011;42705;50.326;18.772;2023-12-04T11:56:31;27.00;;;14.90;;
56824;SDS011;42705;50.326;18.772;2023-12-04T12:01:56;30.20;;;16.60;;
56824;SDS011;42705;50.326;18.772;2023-12-04T12:07:20;27.70;;;16.80;;
56824;SDS011;42705;50.326;18.772;2023-12-04T12:12:42;25.50;;;16.80;;
56824;SDS011;42705;50.326;18.772;2023-12-04T12:18:05;22.40;;;15.70;;
56824;SDS011;42705;50.326;18.772;2023-12-04T12:23:27;20.60;;;15.20;;
56824;SDS011;42705;50.326;18.772;2023-12-04T12:28:50;28.30;;;17.60;;
56824;SDS011;42705;50.326;18.772;2023-12-04T12:34:13;26.80;;;17.50;;
56824;SDS011;42705;50.326;18.772;2023-12-04T12:44:59;25.20;;;16.90;;
56824;SDS011;42705;50.326;18.772;2023-12-04T12:50:23;33.70;;;20.10;;
56824;SDS011;42705;50.326;18.772;2023-12-04T12:55:45;38.40;;;23.30;;
56824;SDS011;42705;50.326;18.772;2023-12-04T13:01:10;35.00;;;19.60;;
56824;SDS011;42705;50.326;18.772;2023-12-04T13:06:32;35.00;;;19.20;;
56824;SDS011;42705;50.326;18.772;2023-12-04T13:11:55;39.80;;;21.50;;
56824;SDS011;42705;50.326;18.772;2023-12-04T13:17:17;45.60;;;23.20;;
56824;SDS011;42705;50.326;18.772;2023-12-04T13:22:40;37.50;;;19.80;;
56824;SDS011;42705;50.326;18.772;2023-12-04T13:28:01;35.60;;;19.00;;
56824;SDS011;42705;50.326;18.772;2023-12-04T13:33:23;33.70;;;19.60;;
56824;SDS011;42705;50.326;18.772;2023-12-04T13:38:47;40.00;;;21.40;;
56824;SDS011;42705;50.326;18.772;2023-12-04T13:44:09;37.30;;;21.70;;
56824;SDS011;42705;50.326;18.772;2023-12-04T13:49:31;36.80;;;20.50;;
56824;SDS011;42705;50.326;18.772;2023-12-04T13:54:54;38.30;;;21.70;;
56824;SDS011;42705;50.326;18.772;2023-12-04T14:00:18;37.50;;;20.80;;
56824;SDS011;42705;50.326;18.772;2023-12-04T14:05:40;48.00;;;22.70;;
56824;SDS011;42705;50.326;18.772;2023-12-04T14:11:03;46.00;;;23.50;;
56824;SDS011;42705;50.326;18.772;2023-12-04T14:16:26;49.00;;;23.70;;
56824;SDS011;42705;50.326;18.772;2023-12-04T14:21:48;52.20;;;25.80;;
56824;SDS011;42705;50.326;18.772;2023-12-04T14:27:11;43.10;;;22.20;;
56824;SDS011;42705;50.326;18.772;2023-12-04T14:32:35;36.60;;;20.80;;
56824;SDS011;42705;50.326;18.772;2023-12-04T14:37:59;45.80;;;22.50;;
56824;SDS011;42705;50.326;18.772;2023-12-04T14:43:21;44.60;;;21.90;;
56824;SDS011;42705;50.326;18.772;2023-12-04T14:48:43;42.90;;;21.80;;
56824;SDS011;42705;50.326;18.772;2023-12-04T14:54:06;44.10;;;19.90;;
56824;SDS011;42705;50.326;18.772;2023-12-04T14:59:30;42.40;;;18.60;;
56824;SDS011;42705;50.326;18.772;2023-12-04T15:05:11;42.90;;;18.30;;
56824;SDS011;42705;50.326;18.772;2023-12-04T15:10:48;37.80;;;19.30;;
56824;SDS011;42705;50.326;18.772;2023-12-04T15:16:29;44.20;;;19.50;;
56824;SDS011;42705;50.326;18.772;2023-12-04T15:22:08;46.70;;;21.00;;
56824;SDS011;42705;50.326;18.772;2023-12-04T15:27:30;46.90;;;22.20;;
56824;SDS011;42705;50.326;18.772;2023-12-04T15:32:52;52.10;;;24.40;;
56824;SDS011;42705;50.326;18.772;2023-12-04T15:38:14;49.80;;;22.90;;
56824;SDS011;42705;50.326;18.772;2023-12-04T15:43:36;45.70;;;21.70;;
56824;SDS011;42705;50.326;18.772;2023-12-04T15:48:58;47.70;;;21.40;;
56824;SDS011;42705;50.326;18.772;2023-12-04T15:54:21;47.90;;;22.00;;
56824;SDS011;42705;50.326;18.772;2023-12-04T15:59:43;45.90;;;21.80;;
56824;SDS011;42705;50.326;18.772;2023-12-04T16:05:07;47.80;;;22.70;;
56824;SDS011;42705;50.326;18.772;2023-12-04T16:10:32;50.20;;;22.50;;
56824;SDS011;42705;50.326;18.772;2023-12-04T16:15:57;39.90;;;20.00;;
56824;SDS011;42705;50.326;18.772;2023-12-04T16:21:19;41.10;;;18.70;;
56824;SDS011;42705;50.326;18.772;2023-12-04T16:26:42;45.70;;;20.40;;
56824;SDS011;42705;50.326;18.772;2023-12-04T16:32:05;46.00;;;21.90;;
56824;SDS011;42705;50.326;18.772;2023-12-04T16:37:27;49.60;;;22.20;;
56824;SDS011;42705;50.326;18.772;2023-12-04T16:42:51;47.90;;;23.80;;
56824;SDS011;42705;50.326;18.772;2023-12-04T16:48:13;53.90;;;25.50;;
56824;SDS011;42705;50.326;18.772;2023-12-04T16:53:38;42.50;;;22.20;;
56824;SDS011;42705;50.326;18.772;2023-12-04T16:59:00;40.40;;;18.20;;
56824;SDS011;42705;50.326;18.772;2023-12-04T17:04:23;45.30;;;21.70;;
56824;SDS011;42705;50.326;18.772;2023-12-04T17:09:45;60.60;;;23.50;;
56824;SDS011;42705;50.326;18.772;2023-12-04T17:15:11;51.60;;;23.20;;
56824;SDS011;42705;50.326;18.772;2023-12-04T17:20:37;38.30;;;18.80;;
56824;SDS011;42705;50.326;18.772;2023-12-04T17:26:00;39.40;;;18.90;;
56824;SDS011;42705;50.326;18.772;2023-12-04T17:31:22;38.20;;;18.50;;
56824;SDS011;42705;50.326;18.772;2023-12-04T17:36:44;33.50;;;17.00;;
56824;SDS011;42705;50.326;18.772;2023-12-04T17:42:08;44.80;;;20.20;;
56824;SDS011;42705;50.326;18.772;2023-12-04T17:47:31;45.80;;;21.80;;
56824;SDS011;42705;50.326;18.772;2023-12-04T17:52:53;52.10;;;23.10;;
56824;SDS011;42705;50.326;18.772;2023-12-04T17:58:15;47.80;;;22.50;;
56824;SDS011;42705;50.326;18.772;2023-12-04T18:03:37;48.10;;;20.60;;
56824;SDS011;42705;50.326;18.772;2023-12-04T18:09:00;38.10;;;19.20;;
56824;SDS011;42705;50.326;18.772;2023-12-04T18:14:22;44.20;;;19.90;;
56824;SDS011;42705;50.326;18.772;2023-12-04T18:19:44;46.50;;;20.20;;
56824;SDS011;42705;50.326;18.772;2023-12-04T18:25:08;56.50;;;21.80;;
56824;SDS011;42705;50.326;18.772;2023-12-04T18:30:31;52.90;;;22.00;;
56824;SDS011;42705;50.326;18.772;2023-12-04T18:41:16;50.40;;;22.20;;
56824;SDS011;42705;50.326;18.772;2023-12-04T18:46:40;47.80;;;20.90;;
56824;SDS011;42705;50.326;18.772;2023-12-04T18:52:02;51.60;;;23.30;;
56824;SDS011;42705;50.326;18.772;2023-12-04T18:57:25;60.80;;;25.20;;
56824;SDS011;42705;50.326;18.772;2023-12-04T19:02:47;49.80;;;21.80;;
56824;SDS011;42705;50.326;18.772;2023-12-04T19:08:09;47.50;;;19.40;;
56824;SDS011;42705;50.326;18.772;2023-12-04T19:13:31;43.10;;;20.50;;
56824;SDS011;42705;50.326;18.772;2023-12-04T19:18:53;52.50;;;21.40;;
56824;SDS011;42705;50.326;18.772;2023-12-04T19:24:15;52.50;;;23.90;;
56824;SDS011;42705;50.326;18.772;2023-12-04T19:29:38;58.50;;;24.30;;
56824;SDS011;42705;50.326;18.772;2023-12-04T19:35:01;53.90;;;21.80;;
56824;SDS011;42705;50.326;18.772;2023-12-04T19:40:24;47.30;;;21.60;;
56824;SDS011;42705;50.326;18.772;2023-12-04T19:45:46;47.90;;;20.70;;
56824;SDS011;42705;50.326;18.772;2023-12-04T19:51:09;52.50;;;21.30;;
56824;SDS011;42705;50.326;18.772;2023-12-04T20:01:54;61.60;;;25.30;;
56824;SDS011;42705;50.326;18.772;2023-12-04T20:07:17;67.90;;;25.60;;
56824;SDS011;42705;50.326;18.772;2023-12-04T20:12:39;60.90;;;25.40;;
56824;SDS011;42705;50.326;18.772;2023-12-04T20:18:01;56.70;;;24.70;;
56824;SDS011;42705;50.326;18.772;2023-12-04T20:23:23;57.60;;;26.40;;
56824;SDS011;42705;50.326;18.772;2023-12-04T20:28:45;63.20;;;27.20;;
56824;SDS011;42705;50.326;18.772;2023-12-04T20:34:07;59.10;;;27.00;;
56824;SDS011;42705;50.326;18.772;2023-12-04T20:39:29;65.80;;;28.40;;
56824;SDS011;42705;50.326;18.772;2023-12-04T20:44:51;56.00;;;24.50;;
56824;SDS011;42705;50.326;18.772;2023-12-04T20:50:13;58.80;;;25.70;;
56824;SDS011;42705;50.326;18.772;2023-12-04T20:55:35;59.90;;;24.80;;
56824;SDS011;42705;50.326;18.772;2023-12-04T21:00:58;58.40;;;25.10;;
56824;SDS011;42705;50.326;18.772;2023-12-04T21:06:20;55.70;;;24.80;;
56824;SDS011;42705;50.326;18.772;2023-12-04T21:11:42;50.70;;;22.60;;
56824;SDS011;42705;50.326;18.772;2023-12-04T21:17:05;55.70;;;23.80;;
56824;SDS011;42705;50.326;18.772;2023-12-04T21:22:27;51.80;;;23.00;;
56824;SDS011;42705;50.326;18.772;2023-12-04T21:27:50;64.30;;;27.70;;
56824;SDS011;42705;50.326;18.772;2023-12-04T21:33:12;72.80;;;31.30;;
56824;SDS011;42705;50.326;18.772;2023-12-04T21:38:34;72.70;;;29.80;;
56824;SDS011;42705;50.326;18.772;2023-12-04T21:43:59;73.30;;;31.30;;
56824;SDS011;42705;50.326;18.772;2023-12-04T21:49:21;83.40;;;34.00;;
56824;SDS011;42705;50.326;18.772;2023-12-04T21:54:43;88.40;;;36.40;;
56824;SDS011;42705;50.326;18.772;2023-12-04T22:00:05;85.00;;;35.20;;
56824;SDS011;42705;50.326;18.772;2023-12-04T22:05:28;77.90;;;33.10;;
56824;SDS011;42705;50.326;18.772;2023-12-04T22:10:51;76.30;;;32.10;;
56824;SDS011;42705;50.326;18.772;2023-12-04T22:16:12;76.40;;;32.20;;
56824;SDS011;42705;50.326;18.772;2023-12-04T22:21:34;74.40;;;32.80;;
56824;SDS011;42705;50.326;18.772;2023-12-04T22:26:56;81.20;;;34.30;;
56824;SDS011;42705;50.326;18.772;2023-12-04T22:32:19;115.40;;;44.40;;
56824;SDS011;42705;50.326;18.772;2023-12-04T22:37:41;108.00;;;43.50;;
56824;SDS011;42705;50.326;18.772;2023-12-04T22:43:04;94.40;;;39.60;;
56824;SDS011;42705;50.326;18.772;2023-12-04T22:48:26;95.80;;;40.60;;
56824;SDS011;42705;50.326;18.772;2023-12-04T22:53:48;98.10;;;40.50;;
56824;SDS011;42705;50.326;18.772;2023-12-04T22:59:11;92.60;;;35.80;;
56824;SDS011;42705;50.326;18.772;2023-12-04T23:04:34;76.70;;;32.00;;
56824;SDS011;42705;50.326;18.772;2023-12-04T23:09:56;70.40;;;28.40;;
56824;SDS011;42705;50.326;18.772;2023-12-04T23:15:19;59.90;;;24.80;;
56824;SDS011;42705;50.326;18.772;2023-12-04T23:20:41;64.10;;;24.50;;
56824;SDS011;42705;50.326;18.772;2023-12-04T23:26:03;57.00;;;25.20;;
56824;SDS011;42705;50.326;18.772;2023-12-04T23:31:25;43.00;;;19.50;;
56824;SDS011;42705;50.326;18.772;2023-12-04T23:36:48;47.60;;;21.10;;
56824;SDS011;42705;50.326;18.772;2023-12-04T23:42:10;40.40;;;20.10;;
56824;SDS011;42705;50.326;18.772;2023-12-04T23:47:31;37.20;;;17.90;;
56824;SDS011;42705;50.326;18.772;2023-12-04T23:52:53;33.20;;;17.10;;
56824;SDS011;42705;50.326;18.772;2023-12-04T23:58:15;39.90;;;18.30;;
